Weather History for Horseshoe Bay, TX

Change the Weather History Date:

Monday, May 13, 2013

  Actual Average (KBMQ) Record (KBMQ)
Temperature  
Mean Temperature 66 °F -  
Max Temperature 86 °F 82 °F 91 °F (2006)
Min Temperature 46 °F 62 °F 50 °F (1997)
Cooling Degree Days 1    
Growing Degree Days 16 (Base 50)    
Moisture  
Dew Point 46 °F    
Average Humidity 52    
Maximum Humidity 100    
Minimum Humidity 20    
Precipitation  
Precipitation 0.00 in - - ()
Sea Level Pressure  
Sea Level Pressure 30.21 in    
Wind  
Wind Speed 3 mph (South)    
Max Wind Speed 10 mph    
Max Gust Speed 16 mph    
Visibility 10 miles    
Events      
Averages and records for this station are not official NWS values.
T = Trace of Precipitation, MM = Missing Value Source: NWS Daily Summary

Daily Weather History Graph

Daily Weather History Graph

Search for Another Location

Airport:

Trip Planner

Search our weather history database for the weather conditions in past years. The results will help you decide how hot, cold, wet, or windy it might be!

Date:

Astronomy

May. 13, 2013 Rise Set
Actual Time 5:40 AM MDT 7:19 PM MDT
Civil Twilight 5:13 AM MDT 7:46 PM MDT
Nautical Twilight 4:42 AM MDT 8:17 PM MDT
Astronomical Twilight 4:09 AM MDT 8:50 PM MDT
Moon 8:28 AM MDT (5/13) 10:29 PM MDT (5/13)
Length of Visible Light 14h 32m
Length of Day
13h 39m
Waxing Crescent, 12% of the Moon is Illuminated
May 13
Waxing Crescent
May 17
First Quarter
May 24
Full
May 31
Last Quarter
Jun 8
New

Hourly Weather History & Observations

Time (MDT) Temp. Windchill Dew Point Humidity Pressure Visibility Wind Dir Wind Speed Gust Speed Precip Events Conditions
12:15 AM 53.6 °F - 46.4 °F 77% 30.22 in 10.0 mi South 3.5 mph - N/A   Clear
12:35 AM 51.8 °F - 46.4 °F 82% 30.23 in 10.0 mi South 3.5 mph - N/A   Clear
12:55 AM 51.8 °F - 46.4 °F 82% 30.22 in 10.0 mi South 3.5 mph - N/A   Clear
1:15 AM 51.8 °F - 46.4 °F 82% 30.23 in 10.0 mi Calm Calm - N/A   Clear
1:35 AM 51.8 °F - 46.4 °F 82% 30.22 in 10.0 mi South 3.5 mph - N/A   Clear
1:55 AM 51.8 °F - 44.6 °F 76% 30.21 in 10.0 mi South 3.5 mph - N/A   Clear
2:15 AM 51.8 °F - 44.6 °F 76% 30.21 in 10.0 mi South 3.5 mph - N/A   Clear
2:35 AM 50.0 °F - 44.6 °F 82% 30.21 in 10.0 mi Calm Calm - N/A   Clear
2:55 AM 50.0 °F - 44.6 °F 82% 30.21 in 10.0 mi South 3.5 mph - N/A   Clear
3:15 AM 50.0 °F - 44.6 °F 82% 30.20 in 10.0 mi South 3.5 mph - N/A   Clear
3:35 AM 50.0 °F - 44.6 °F 82% 30.20 in 10.0 mi Calm Calm - N/A   Clear
3:55 AM 48.2 °F - 44.6 °F 87% 30.20 in 10.0 mi SW 5.8 mph - N/A   Clear
4:15 AM 50.0 °F - 44.6 °F 82% 30.20 in 10.0 mi Calm Calm - N/A   Clear
4:35 AM 50.0 °F - 44.6 °F 82% 30.21 in 10.0 mi SSE 3.5 mph - N/A   Clear
4:55 AM 48.2 °F - 44.6 °F 87% 30.21 in 10.0 mi SW 9.2 mph - N/A   Clear
5:15 AM 46.4 °F 45.2 °F 44.6 °F 93% 30.21 in 10.0 mi South 3.5 mph - N/A   Clear
5:35 AM 46.4 °F 45.2 °F 44.6 °F 93% 30.22 in 10.0 mi SSW 3.5 mph - N/A   Clear
6:15 AM 46.4 °F - 46.4 °F 100% 30.24 in 10.0 mi Calm Calm - N/A   Clear
6:35 AM 50.0 °F - 44.6 °F 82% 30.24 in 10.0 mi Calm Calm - N/A   Clear
6:55 AM 53.6 °F - 46.4 °F 77% 30.24 in 10.0 mi Calm Calm - N/A   Clear
7:15 AM 59.0 °F - 44.6 °F 59% 30.25 in 10.0 mi Calm Calm - N/A   Clear
7:35 AM 60.8 °F - 48.2 °F 63% 30.25 in 10.0 mi Calm Calm - N/A   Clear
7:55 AM 60.8 °F - 46.4 °F 59% 30.26 in 10.0 mi Calm Calm - N/A   Clear
8:15 AM 62.6 °F - 48.2 °F 59% 30.27 in 10.0 mi Calm Calm - N/A   Clear
8:35 AM 64.4 °F - 48.2 °F 56% 30.27 in 10.0 mi Calm Calm - N/A   Clear
8:55 AM 68.0 °F - 50.0 °F 52% 30.27 in 10.0 mi Calm Calm - N/A   Clear
9:15 AM 69.8 °F - 50.0 °F 49% 30.27 in 10.0 mi Calm Calm - N/A   Clear
9:35 AM 71.6 °F - 51.8 °F 50% 30.27 in 10.0 mi Calm Calm - N/A   Clear
9:55 AM 73.4 °F - 50.0 °F 44% 30.27 in 10.0 mi Calm Calm - N/A   Clear
10:15 AM 77.0 °F - 50.0 °F 39% 30.26 in 10.0 mi Calm Calm - N/A   Clear
10:35 AM 77.0 °F - 50.0 °F 39% 30.26 in 10.0 mi NNE 3.5 mph - N/A   Clear
10:55 AM 78.8 °F - 46.4 °F 32% 30.26 in 10.0 mi Calm Calm - N/A   Clear
11:15 AM 78.8 °F - 44.6 °F 30% 30.26 in 10.0 mi South 4.6 mph - N/A   Clear
11:35 AM 78.8 °F - 42.8 °F 28% 30.25 in 10.0 mi Calm Calm - N/A   Clear
11:55 AM 80.6 °F - 41.0 °F 24% 30.25 in 10.0 mi South 4.6 mph - N/A   Clear
12:15 PM 82.4 °F - 41.0 °F 23% 30.24 in 10.0 mi South 5.8 mph - N/A   Clear
12:35 PM 82.4 °F - 41.0 °F 23% 30.23 in 10.0 mi SSE 8.1 mph - N/A   Clear
12:55 PM 82.4 °F - 42.8 °F 25% 30.22 in 10.0 mi Calm Calm - N/A   Clear
1:15 PM 82.4 °F - 44.6 °F 26% 30.21 in 10.0 mi South 4.6 mph - N/A   Clear
1:35 PM 82.4 °F - 44.6 °F 26% 30.20 in 10.0 mi SSE 8.1 mph - N/A   Clear
1:55 PM 84.2 °F - 44.6 °F 25% 30.20 in 10.0 mi South 8.1 mph - N/A   Clear
2:55 PM 86.0 °F - 41.0 °F 20% 30.17 in 10.0 mi South 6.9 mph - N/A   Clear
3:15 PM 86.0 °F - 42.8 °F 22% 30.17 in 10.0 mi SSE 5.8 mph - N/A   Clear
3:35 PM 86.0 °F - 42.8 °F 22% 30.16 in 10.0 mi SSE 9.2 mph 16.1 mph N/A   Clear
3:55 PM 86.0 °F - 44.6 °F 23% 30.15 in 10.0 mi South 5.8 mph - N/A   Clear
4:15 PM 86.0 °F - 42.8 °F 22% 30.15 in 10.0 mi SSE 10.4 mph - N/A   Clear
4:35 PM 86.0 °F - 42.8 °F 22% 30.15 in 10.0 mi SSE 10.4 mph - N/A   Clear
4:55 PM 86.0 °F - 42.8 °F 22% 30.14 in 10.0 mi SSE 8.1 mph - N/A   Clear
5:35 PM 82.4 °F - 42.8 °F 25% 30.14 in 10.0 mi South 6.9 mph - N/A   Clear
6:15 PM 80.6 °F - 44.6 °F 28% 30.14 in 10.0 mi SSE 6.9 mph - N/A   Clear
6:35 PM 80.6 °F - 44.6 °F 28% 30.14 in 10.0 mi SSE 6.9 mph - N/A   Clear
6:55 PM 78.8 °F - 46.4 °F 32% 30.15 in 10.0 mi South 5.8 mph - N/A   Clear
7:15 PM 77.0 °F - 44.6 °F 32% 30.15 in 10.0 mi South 5.8 mph - N/A   Clear
7:35 PM 75.2 °F - 44.6 °F 34% 30.15 in 10.0 mi SSE 4.6 mph - N/A   Clear
7:55 PM 73.4 °F - 46.4 °F 38% 30.16 in 10.0 mi SSE 4.6 mph - N/A   Clear
8:15 PM 71.6 °F - 46.4 °F 41% 30.17 in 10.0 mi SSE 3.5 mph - N/A   Clear
8:35 PM 69.8 °F - 46.4 °F 43% 30.18 in 10.0 mi SSE 3.5 mph - N/A   Clear
8:55 PM 69.8 °F - 48.2 °F 46% 30.19 in 10.0 mi Calm Calm - N/A   Clear
9:15 PM 68.0 °F - 48.2 °F 49% 30.20 in 10.0 mi Calm Calm - N/A   Clear
9:35 PM 66.2 °F - 48.2 °F 52% 30.20 in 10.0 mi SE 3.5 mph - N/A   Clear
9:55 PM 66.2 °F - 50.0 °F 56% 30.21 in 10.0 mi SSE 4.6 mph - N/A   Clear
10:15 PM 66.2 °F - 48.2 °F 52% 30.21 in 10.0 mi SSE 5.8 mph - N/A   Clear
10:35 PM 66.2 °F - 48.2 °F 52% 30.21 in 10.0 mi SSE 5.8 mph - N/A   Clear
10:55 PM 66.2 °F - 48.2 °F 52% 30.21 in 10.0 mi SSE 5.8 mph - N/A   Clear
11:15 PM 68.0 °F - 50.0 °F 52% 30.21 in 10.0 mi SSE 5.8 mph - N/A   Clear
11:35 PM 66.2 °F - 50.0 °F 56% 30.20 in 10.0 mi SSE 6.9 mph - N/A   Clear
11:55 PM 66.2 °F - 50.0 °F 56% 30.21 in 10.0 mi South 5.8 mph - N/A   Clear